• Join FlightAware (Why Join?)
  • Login
  • US Flag 
12:01PM EDT


 

Airport Tracker/Info


-or-


 

Live Flight TrackerFlight Track Log ✈ CPT8773 ✈ 25-Apr-2013 ✈ KCPR - KCOD

Flight Track Log - Related Links

Times and Time Zones

All times are in EDT time to prevent confusion due to time zone crossing. See the CPT8773 flight status page for this flight to view local times or setup timezone preferences in your user account.

Time Position Orientation Groundspeed Altitude Reporting Facility
EDT Latitude Longitude Course Direction KTS MPH feet Rate Location/Type
09:07AM 42.9381 -106.5158 308° West 110 127 7,200  Level Denver Center
09:08AM 42.9700 -106.5183 357° North 117 135 7,900 660 Climbing Denver Center
09:09AM 43.0092 -106.5231 355° North 122 140 8,600 660 Climbing Denver Center
09:10AM 43.0431 -106.5300 351° North 125 144 9,300 600 Climbing Denver Center
09:11AM 43.0868 -106.2728 308° West  Level FlightAware Approximate
09:11AM 43.0769 -106.5378 350° North 127 146 9,900  Level Denver Center
09:12AM 43.1108 -106.3146 308° West  Level FlightAware Approximate
09:12AM 43.1136 -106.5464 350° North 124 143 10,600  Level Denver Center
09:13AM 43.1419 -106.5544 348° North 116 133 11,200 540 Climbing Denver Center
09:14AM 43.1778 -106.5642 349° North 117 135 11,800 420 Climbing Denver Center
09:15AM 43.2103 -106.5736 348° North 123 142 12,100 60 Climbing Denver Center
09:16AM 43.2461 -106.5861 346° North 135 155 12,000 -60 Descending Denver Center
09:17AM 43.2789 -106.6258 319° Northwest 140 161 12,000  Level Denver Center
09:18AM 43.3000 -106.6694 304° West 141 162 12,100  Climbing Denver Center
09:19AM 43.3211 -106.7128 304° West 143 165 12,000  Descending Denver Center
09:20AM 43.3472 -106.7625 306° West 144 166 12,100  Climbing Denver Center
09:21AM 43.3669 -106.8061 302° West 141 162 12,100  Level Denver Center
09:22AM 43.3883 -106.8458 307° West 137 158 12,200  Climbing Denver Center
09:23AM 43.4144 -106.8914 308° West 138 159 12,100 -60 Descending Denver Center
09:24AM 43.4369 -106.9361 305° West 146 168 12,100  Level Denver Center
09:25AM 43.4589 -106.9775 306° West 142 163 12,100  Level Denver Center
09:26AM 43.4825 -107.0275 303° West 139 160 12,100  Level Denver Center
09:27AM 43.5044 -107.0667 308° West 137 158 12,100  Level Denver Center
09:28AM 43.5294 -107.1133 306° West 136 157 12,100  Level Denver Center
09:29AM 43.5497 -107.1522 306° West 133 153 12,200  Climbing Denver Center
09:30AM 43.5728 -107.1936 308° West 139 160 12,100  Descending Denver Center
09:31AM 43.5967 -107.2378 307° West 132 152 12,200 -60 Climbing Denver Center
09:32AM 43.6197 -107.2872 303° West 134 154 12,000 -60 Descending Salt Lake Center
09:33AM 43.6414 -107.3275 307° West 136 157 12,100  Climbing Salt Lake Center
09:34AM 43.6644 -107.3681 308° West 138 159 12,100 -60 Level Salt Lake Center
09:35AM 43.6914 -107.4169 307° West 141 162 12,000 -60 Descending Salt Lake Center
09:36AM 43.7131 -107.4594 305° West 141 162 12,000  Level Salt Lake Center
09:37AM 43.7344 -107.5011 305° West 140 161 12,100  Climbing Salt Lake Center
09:38AM 43.7597 -107.5514 305° West 141 162 12,000 -120 Descending Salt Lake Center
09:39AM 43.7828 -107.5942 307° West 143 165 11,900 -60 Descending Salt Lake Center
09:40AM 43.8081 -107.6417 306° West 141 162 11,900  Level Salt Lake Center
09:41AM 43.8300 -107.6828 307° West 139 160 11,900  Level Salt Lake Center
09:42AM 43.8508 -107.7244 305° West 138 159 11,900  Level Salt Lake Center
09:43AM 43.8772 -107.7706 308° West 137 158 11,900  Level Salt Lake Center
09:44AM 43.8986 -107.8131 305° West 138 159 11,900  Level Salt Lake Center
09:45AM 43.9200 -107.8539 306° West 138 159 12,000  Climbing Salt Lake Center
09:46AM 43.9450 -107.9014 306° West 137 158 11,900 -60 Descending Salt Lake Center
09:47AM 43.9661 -107.9433 305° West 137 158 11,900  Level Salt Lake Center
09:49AM 43.9906 -107.9900 306° West 136 157 12,000  Climbing Salt Lake Center
09:50AM 44.0119 -108.0314 306° West 136 157 11,900 -60 Descending Salt Lake Center
09:51AM 44.0328 -108.0717 306° West 135 155 11,900  Level Salt Lake Center
09:52AM 44.0583 -108.1200 306° West 137 158 11,900  Level Salt Lake Center
09:53AM 44.0797 -108.1614 306° West 137 158 11,900  Level Salt Lake Center
09:54AM 44.1022 -108.2086 304° West 135 155 11,900  Level Salt Lake Center
09:55AM 44.1225 -108.2475 306° West 132 152 11,900  Level Salt Lake Center
09:56AM 44.1431 -108.2881 305° West 132 152 12,000  Climbing Salt Lake Center
09:57AM 44.1681 -108.3339 307° West 133 153 11,900  Descending Salt Lake Center
09:58AM 44.1878 -108.3744 304° West 132 152 12,000  Climbing Salt Lake Center
09:59AM 44.2083 -108.4142 306° West 132 152 11,900 -180 Descending Salt Lake Center
10:00AM 44.2336 -108.4628 306° West 135 155 11,700 -420 Descending Salt Lake Center
10:01AM 44.2589 -108.5067 309° West 141 162 11,100 -660 Descending Salt Lake Center
10:02AM 44.2867 -108.5614 305° West 149 171 10,400 -540 Descending Salt Lake Center
10:03AM 44.3100 -108.6083 305° West 152 175 10,000 -240 Descending Salt Lake Center
10:04AM 44.3311 -108.6539 303° West 150 173 10,000 -60 Level Salt Lake Center
10:05AM 44.3594 -108.7042 308° West 148 170 9,900 -120 Descending Salt Lake Center